Time;durP1;ratioP1;P1;durP2;ratioP2;P2;SDS_P1;SDS_P2;PMS_P1;PMS_P2;Temp;Humidity;BMP_temperature;BMP_pressure;BME280_temperature;BME280_humidity;BME280_pressure;Samples;Min_cycle;Max_cycle;Signal;HPM_P1;HPM_P2
2023/04/01 00:00:57;;;;;;;2.17;0.85;;;10.60;99.90;;;;;;5032686;28;20025;-69
2023/04/01 00:03:26;;;;;;;0.47;0.20;;;10.60;99.90;;;;;;5006641;28;20410;-69
2023/04/01 00:05:51;;;;;;;6.20;0.75;;;10.60;99.90;;;;;;5023001;28;20029;-69
2023/04/01 00:08:18;;;;;;;0.55;0.30;;;10.60;99.90;;;;;;5007801;28;20022;-70
2023/04/01 00:10:43;;;;;;;1.63;0.43;;;10.60;99.90;;;;;;5030743;28;20036;-70
2023/04/01 00:13:09;;;;;;;1.02;0.30;;;10.50;99.90;;;;;;5025817;28;20069;-69
2023/04/01 00:15:35;;;;;;;0.45;0.30;;;10.50;99.90;;;;;;5029082;28;20536;-69
2023/04/01 00:18:01;;;;;;;0.75;0.38;;;10.50;99.90;;;;;;5027410;28;20026;-70
2023/04/01 00:20:28;;;;;;;4.38;0.73;;;10.60;99.90;;;;;;5029322;28;20021;-69
2023/04/01 00:22:54;;;;;;;5.70;1.08;;;10.60;99.90;;;;;;5027966;28;20045;-68
2023/04/01 00:25:21;;;;;;;0.77;0.40;;;10.60;99.90;;;;;;5027034;28;20030;-70
2023/04/01 00:27:47;;;;;;;0.32;0.10;;;10.60;99.90;;;;;;5027501;28;20108;-69
2023/04/01 00:30:13;;;;;;;0.10;0.10;;;10.60;99.90;;;;;;5026109;28;20105;-69
2023/04/01 00:32:39;;;;;;;0.17;0.13;;;10.60;99.90;;;;;;5012288;28;20040;-69
2023/04/01 00:35:05;;;;;;;0.52;0.43;;;10.60;99.90;;;;;;5025653;28;20375;-70
2023/04/01 00:37:34;;;;;;;0.80;0.38;;;10.60;99.90;;;;;;5031014;28;20524;-69
2023/04/01 00:39:59;;;;;;;0.43;0.28;;;10.60;99.90;;;;;;5023624;28;20033;-69
2023/04/01 00:42:25;;;;;;;0.30;0.20;;;10.50;99.90;;;;;;5031451;28;20033;-70
2023/04/01 00:44:54;;;;;;;0.47;0.28;;;10.70;99.90;;;;;;5023818;28;20018;-68
2023/04/01 00:47:22;;;;;;;0.10;0.10;;;10.60;99.90;;;;;;5030716;28;20038;-68
2023/04/01 00:49:51;;;;;;;0.40;0.30;;;10.70;99.90;;;;;;5006308;28;20110;-68
2023/04/01 00:52:22;;;;;;;3.33;0.65;;;10.70;99.90;;;;;;5030585;28;20060;-69
2023/04/01 00:54:53;;;;;;;0.32;0.15;;;10.70;99.90;;;;;;5013331;28;20037;-68
2023/04/01 00:57:34;;;;;;;1.17;0.17;;;10.70;99.90;;;;;;5030390;28;20025;-69
2023/04/01 00:59:59;;;;;;;6.53;0.73;;;10.70;99.90;;;;;;5008618;28;20083;-68
2023/04/01 01:02:25;;;;;;;0.63;0.28;;;10.70;99.90;;;;;;5030898;28;20034;-68
2023/04/01 01:04:51;;;;;;;1.70;0.52;;;10.70;99.90;;;;;;5029115;28;20021;-68
2023/04/01 01:07:46;;;;;;;1.15;0.43;;;10.70;99.90;;;;;;5028654;28;20480;-68
2023/04/01 01:10:31;;;;;;;6.65;0.38;;;10.70;99.90;;;;;;5027019;28;20393;-70
2023/04/01 01:13:17;;;;;;;1.27;0.10;;;10.60;99.90;;;;;;5008848;28;20485;-68
2023/04/01 01:15:49;;;;;;;4.03;0.70;;;10.70;99.90;;;;;;5030378;28;20063;-68
2023/04/01 01:18:38;;;;;;;0.40;0.30;;;10.70;99.90;;;;;;5013131;28;20068;-69
2023/04/01 01:21:42;;;;;;;0.40;0.25;;;10.70;99.90;;;;;;5031165;28;20130;-68
2023/04/01 01:24:28;;;;;;;0.65;0.50;;;10.70;99.90;;;;;;5025084;28;20087;-68
2023/04/01 01:27:16;;;;;;;3.75;0.25;;;10.70;99.90;;;;;;5023726;28;20095;-68
2023/04/01 01:30:15;;;;;;;3.05;0.73;;;10.70;99.90;;;;;;5013567;28;20033;-68
2023/04/01 01:33:18;;;;;;;2.90;0.63;;;10.70;99.90;;;;;;5028597;28;20040;-68
2023/04/01 01:35:52;;;;;;;0.68;0.52;;;10.70;99.90;;;;;;5028996;28;20101;-68
2023/04/01 01:38:24;;;;;;;0.88;0.20;;;10.70;99.90;;;;;;5008334;28;20034;-68
2023/04/01 01:40:53;;;;;;;0.15;0.15;;;10.70;99.90;;;;;;5036499;28;20036;-68
2023/04/01 01:43:31;;;;;;;1.55;0.52;;;10.60;99.90;;;;;;5035680;28;20018;-68
2023/04/01 01:46:02;;;;;;;1.42;0.43;;;10.60;99.90;;;;;;5030909;28;20033;-68
2023/04/01 01:48:30;;;;;;;0.50;0.13;;;10.60;99.90;;;;;;5032518;28;20116;-68
2023/04/01 01:50:57;;;;;;;0.15;0.10;;;10.70;99.90;;;;;;5038968;28;20025;-69
2023/04/01 01:53:23;;;;;;;0.20;0.13;;;10.70;99.90;;;;;;5042179;28;20394;-70
2023/04/01 01:55:49;;;;;;;1.15;0.57;;;10.70;99.90;;;;;;5021296;28;20025;-69
2023/04/01 01:58:27;;;;;;;3.65;0.40;;;10.70;99.90;;;;;;5029771;28;20026;-70
2023/04/01 02:01:00;;;;;;;6.43;0.68;;;10.70;99.90;;;;;;5029825;28;20132;-69
2023/04/01 02:03:30;;;;;;;8.60;1.50;;;10.70;99.90;;;;;;5041563;28;20119;-70
2023/04/01 02:05:59;;;;;;;2.63;0.40;;;10.80;99.90;;;;;;5038510;28;20044;-69
2023/04/01 02:08:35;;;;;;;0.98;0.20;;;10.80;99.90;;;;;;5025381;28;20081;-69
2023/04/01 02:11:12;;;;;;;1.88;0.70;;;10.80;99.90;;;;;;5030443;28;20025;-69
2023/04/01 02:13:52;;;;;;;2.60;0.85;;;10.80;99.90;;;;;;5032772;28;20045;-69
2023/04/01 02:16:43;;;;;;;0.43;0.22;;;10.80;99.90;;;;;;5037188;28;20037;-68
2023/04/01 02:19:12;;;;;;;1.58;0.55;;;10.90;99.90;;;;;;5039269;28;20059;-68
2023/04/01 02:21:39;;;;;;;1.55;0.47;;;10.90;99.90;;;;;;5043927;28;20076;-69
2023/04/01 02:24:11;;;;;;;1.65;0.15;;;10.80;99.90;;;;;;5039409;28;20037;-68
2023/04/01 02:26:38;;;;;;;3.78;0.50;;;10.80;99.90;;;;;;5043413;28;20392;-69
2023/04/01 02:29:06;;;;;;;1.55;0.45;;;10.90;99.90;;;;;;5031617;28;20056;-69
2023/04/01 02:31:33;;;;;;;0.68;0.40;;;10.90;99.90;;;;;;5047093;28;20485;-70
2023/04/01 02:34:00;;;;;;;5.00;0.47;;;10.80;99.90;;;;;;5028255;28;20029;-70
2023/04/01 02:36:26;;;;;;;0.75;0.52;;;10.90;99.90;;;;;;5034208;28;20104;-69
2023/04/01 02:38:54;;;;;;;1.55;0.20;;;10.80;99.90;;;;;;5045548;28;20545;-68
2023/04/01 02:41:20;;;;;;;4.20;0.45;;;10.80;99.90;;;;;;5044965;28;20128;-68
2023/04/01 02:43:46;;;;;;;0.03;0.03;;;10.70;99.90;;;;;;5030723;28;20120;-68
2023/04/01 02:46:12;;;;;;;0.55;0.47;;;10.80;99.90;;;;;;5042489;23;20125;-66
2023/04/01 02:48:38;;;;;;;4.75;0.60;;;10.80;99.90;;;;;;5015329;28;20057;-67
2023/04/01 02:51:03;;;;;;;5.05;1.70;;;10.70;99.90;;;;;;5027117;28;20026;-67
2023/04/01 02:53:29;;;;;;;0.22;0.08;;;10.70;99.90;;;;;;5033756;28;20025;-68
2023/04/01 02:55:55;;;;;;;1.35;0.47;;;10.70;99.90;;;;;;5026839;28;20025;-68
2023/04/01 02:58:21;;;;;;;0.98;0.17;;;10.70;99.90;;;;;;5033609;28;20084;-67
2023/04/01 03:00:47;;;;;;;0.40;0.10;;;10.70;99.90;;;;;;5026811;28;20034;-67
2023/04/01 03:03:13;;;;;;;0.10;0.10;;;10.60;99.90;;;;;;5032978;28;20040;-68
2023/04/01 03:05:39;;;;;;;7.55;0.30;;;10.60;99.90;;;;;;5014568;28;20088;-67
2023/04/01 03:08:06;;;;;;;1.55;0.55;;;10.60;99.90;;;;;;5001417;28;20041;-67
2023/04/01 03:10:32;;;;;;;1.30;0.50;;;10.50;99.90;;;;;;5027040;28;20063;-67
2023/04/01 03:12:57;;;;;;;4.13;0.15;;;10.50;99.90;;;;;;5016695;28;20017;-67
2023/04/01 03:15:23;;;;;;;9.98;0.32;;;10.60;99.90;;;;;;5027191;28;20405;-67
2023/04/01 03:17:49;;;;;;;0.68;0.10;;;10.50;99.90;;;;;;5033275;28;20041;-67
2023/04/01 03:20:15;;;;;;;0.50;0.10;;;10.50;99.90;;;;;;5027877;28;20041;-67
2023/04/01 03:22:41;;;;;;;0.00;0.00;;;10.50;99.90;;;;;;5032227;28;20029;-67
2023/04/01 03:25:08;;;;;;;8.63;0.65;;;10.50;99.90;;;;;;5026710;28;20034;-67
2023/04/01 03:27:35;;;;;;;0.85;0.40;;;10.40;99.90;;;;;;5031034;28;20096;-67
2023/04/01 03:30:04;;;;;;;0.80;0.20;;;10.40;99.90;;;;;;5029678;28;20115;-67
2023/04/01 03:32:30;;;;;;;1.17;0.25;;;10.50;99.90;;;;;;5029106;28;20450;-67
2023/04/01 03:34:55;;;;;;;5.82;0.98;;;10.40;99.90;;;;;;5030202;28;20093;-67
2023/04/01 03:37:22;;;;;;;1.25;0.30;;;10.40;99.90;;;;;;5029247;28;20045;-67
2023/04/01 03:39:48;;;;;;;0.82;0.35;;;10.40;99.90;;;;;;5029856;28;20071;-67
2023/04/01 03:42:14;;;;;;;4.35;0.93;;;10.30;99.90;;;;;;5028350;28;20733;-67
2023/04/01 03:44:40;;;;;;;0.00;0.00;;;10.30;99.90;;;;;;5031338;28;20478;-67
2023/04/01 03:47:05;;;;;;;0.20;0.05;;;10.30;99.90;;;;;;5009587;28;20064;-67
2023/04/01 03:49:32;;;;;;;0.65;0.30;;;10.30;99.90;;;;;;5032844;28;20022;-68
2023/04/01 03:51:58;;;;;;;2.72;0.22;;;10.40;99.90;;;;;;5026069;28;20548;-68
2023/04/01 03:54:24;;;;;;;6.15;0.70;;;10.40;99.90;;;;;;5032670;28;20112;-68
2023/04/01 03:56:50;;;;;;;2.03;0.52;;;10.40;99.90;;;;;;5025517;28;20446;-68
2023/04/01 03:59:16;;;;;;;1.33;0.32;;;10.40;99.90;;;;;;5032557;28;20043;-67
2023/04/01 04:01:42;;;;;;;2.28;0.35;;;10.40;99.90;;;;;;5025637;28;20043;-68
2023/04/01 04:04:10;;;;;;;0.57;0.20;;;10.50;99.90;;;;;;5032303;28;20775;-67
2023/04/01 04:06:36;;;;;;;1.90;0.50;;;10.40;99.90;;;;;;5007783;28;20405;-68
2023/04/01 04:09:02;;;;;;;4.50;0.28;;;10.40;99.90;;;;;;5032585;28;20097;-68
2023/04/01 04:11:27;;;;;;;3.90;1.02;;;10.50;99.90;;;;;;5027716;28;20587;-68
2023/04/01 04:13:53;;;;;;;0.50;0.13;;;10.50;99.90;;;;;;5032127;28;20029;-68
2023/04/01 04:16:19;;;;;;;0.63;0.30;;;10.40;99.90;;;;;;5025444;28;20480;-68
2023/04/01 04:18:45;;;;;;;2.25;0.20;;;10.40;99.90;;;;;;5032358;28;20044;-67
2023/04/01 04:21:14;;;;;;;1.95;1.05;;;10.40;99.90;;;;;;5025516;28;20037;-67
2023/04/01 04:23:42;;;;;;;0.55;0.17;;;10.40;99.90;;;;;;5031938;28;20539;-67
2023/04/01 04:26:14;;;;;;;1.65;0.60;;;10.40;99.90;;;;;;5025169;28;20064;-67
2023/04/01 04:28:40;;;;;;;1.40;0.20;;;10.50;99.90;;;;;;5022657;28;20026;-68
2023/04/01 04:31:07;;;;;;;0.00;0.00;;;10.50;99.90;;;;;;5023450;28;20155;-68
2023/04/01 04:33:34;;;;;;;0.75;0.30;;;10.50;99.90;;;;;;5038652;28;20025;-67
2023/04/01 04:36:00;;;;;;;3.28;0.35;;;10.50;99.90;;;;;;5025207;28;20099;-67
2023/04/01 04:38:27;;;;;;;4.32;0.57;;;10.50;99.90;;;;;;5032018;28;20064;-67
2023/04/01 04:40:53;;;;;;;1.02;0.60;;;10.50;99.90;;;;;;5030731;28;20029;-67
2023/04/01 04:43:19;;;;;;;0.40;0.20;;;10.50;99.90;;;;;;5031818;28;20500;-67
2023/04/01 04:45:45;;;;;;;0.82;0.32;;;10.60;99.90;;;;;;5022833;28;20041;-68
2023/04/01 04:48:18;;;;;;;2.72;0.40;;;10.50;99.90;;;;;;5031740;28;20116;-68
2023/04/01 04:50:45;;;;;;;2.38;0.57;;;10.50;99.90;;;;;;5024581;28;20037;-67
2023/04/01 04:53:12;;;;;;;2.65;0.30;;;10.50;99.90;;;;;;5031409;28;20024;-67
2023/04/01 04:55:48;;;;;;;0.63;0.10;;;10.50;99.90;;;;;;5022744;28;20034;-68
2023/04/01 04:58:14;;;;;;;0.30;0.10;;;10.40;99.90;;;;;;5031635;28;20036;-66
2023/04/01 05:00:40;;;;;;;1.50;0.40;;;10.40;99.90;;;;;;5022785;28;20130;-67
2023/04/01 05:03:06;;;;;;;3.63;0.35;;;10.30;99.90;;;;;;5031326;28;20125;-68
2023/04/01 05:05:32;;;;;;;0.75;0.32;;;10.30;99.90;;;;;;5024685;28;20038;-67
2023/04/01 05:07:58;;;;;;;0.40;0.20;;;10.20;99.90;;;;;;5031506;28;20017;-68
2023/04/01 05:10:23;;;;;;;0.30;0.30;;;10.20;99.90;;;;;;5024780;28;20033;-68
2023/04/01 05:12:49;;;;;;;2.70;0.30;;;10.10;99.90;;;;;;5021611;28;20073;-68
2023/04/01 05:15:15;;;;;;;2.05;0.30;;;10.10;99.90;;;;;;5023463;28;20117;-67
2023/04/01 05:17:41;;;;;;;0.00;0.00;;;10.10;99.90;;;;;;5029664;28;20033;-67
2023/04/01 05:20:07;;;;;;;4.95;0.25;;;10.10;99.90;;;;;;5026892;28;20030;-67
2023/04/01 05:22:33;;;;;;;6.63;0.38;;;10.10;99.90;;;;;;5027373;28;20204;-68
2023/04/01 05:24:59;;;;;;;1.52;0.43;;;10.00;99.90;;;;;;5026928;28;20569;-67
2023/04/01 05:27:25;;;;;;;1.90;0.77;;;10.00;99.90;;;;;;5027363;28;20389;-68
2023/04/01 05:29:51;;;;;;;2.75;0.65;;;10.00;99.90;;;;;;5028503;28;20049;-68
2023/04/01 05:32:17;;;;;;;0.13;0.13;;;10.10;99.90;;;;;;5026008;28;20025;-67
2023/04/01 05:34:42;;;;;;;1.35;0.70;;;10.00;99.90;;;;;;5029262;28;20040;-67
2023/04/01 05:37:09;;;;;;;7.47;2.55;;;10.00;99.90;;;;;;5024984;28;20029;-68
2023/04/01 05:39:38;;;;;;;0.10;0.05;;;10.00;99.90;;;;;;5030280;28;20041;-67
2023/04/01 05:42:07;;;;;;;0.55;0.20;;;10.00;99.90;;;;;;5006547;28;20071;-67
2023/04/01 05:44:33;;;;;;;4.47;0.65;;;10.00;99.90;;;;;;5029887;28;20084;-67
2023/04/01 05:46:59;;;;;;;1.13;0.30;;;10.00;99.90;;;;;;5023722;28;20037;-68
2023/04/01 05:49:25;;;;;;;2.72;0.52;;;10.00;99.90;;;;;;5032976;28;20485;-67
2023/04/01 05:51:51;;;;;;;0.32;0.28;;;10.00;99.90;;;;;;5023144;28;20041;-67
2023/04/01 05:54:18;;;;;;;3.83;0.10;;;10.10;99.90;;;;;;5030056;28;20056;-67
2023/04/01 05:56:43;;;;;;;2.05;0.43;;;10.00;99.90;;;;;;5023369;28;20044;-67
2023/04/01 05:59:11;;;;;;;0.47;0.20;;;10.00;99.90;;;;;;5030453;28;20029;-67
2023/04/01 06:01:37;;;;;;;5.13;0.38;;;10.10;99.90;;;;;;5021592;28;20501;-68
2023/04/01 06:04:03;;;;;;;2.35;0.30;;;10.10;99.90;;;;;;5022813;28;20486;-68
2023/04/01 06:06:33;;;;;;;2.47;0.70;;;10.10;99.90;;;;;;5021608;28;20021;-68
2023/04/01 06:09:26;;;;;;;2.13;0.40;;;10.10;99.90;;;;;;5030418;28;20384;-68
2023/04/01 06:11:54;;;;;;;1.13;0.25;;;10.10;99.90;;;;;;5008071;28;20385;-67
2023/04/01 06:14:37;;;;;;;2.92;0.45;;;10.10;99.90;;;;;;5029828;28;20396;-67
2023/04/01 06:17:40;;;;;;;5.53;1.55;;;10.10;99.90;;;;;;5030047;28;20048;-67
2023/04/01 06:20:30;;;;;;;0.47;0.45;;;10.10;99.90;;;;;;5010997;28;20099;-67
2023/04/01 06:23:49;;;;;;;1.00;0.50;;;10.20;99.90;;;;;;5029904;28;20030;-67
2023/04/01 06:26:44;;;;;;;2.08;0.28;;;10.10;99.90;;;;;;5023205;28;20037;-67
2023/04/01 06:29:54;;;;;;;2.70;0.57;;;10.10;99.90;;;;;;5024689;28;20037;-67
2023/04/01 06:32:57;;;;;;;0.43;0.15;;;10.10;99.90;;;;;;5032700;28;20634;-68
2023/04/01 06:35:41;;;;;;;1.30;0.57;;;10.10;99.90;;;;;;5010735;28;20493;-68
2023/04/01 06:38:52;;;;;;;1.20;0.13;;;10.10;99.90;;;;;;5024151;28;20539;-68
2023/04/01 06:41:39;;;;;;;2.07;0.50;;;10.20;99.90;;;;;;5023352;28;20033;-68
2023/04/01 06:44:58;;;;;;;0.57;0.20;;;10.10;99.90;;;;;;5023599;28;20412;-68
2023/04/01 06:47:39;;;;;;;0.70;0.22;;;10.20;99.90;;;;;;5006891;28;20040;-68
2023/04/01 06:50:24;;;;;;;0.20;0.13;;;10.20;99.90;;;;;;5010302;28;20022;-68
2023/04/01 06:53:10;;;;;;;0.20;0.15;;;10.20;99.90;;;;;;5004224;28;20493;-67
2023/04/01 06:55:58;;;;;;;4.32;0.45;;;10.20;99.90;;;;;;5023218;28;20065;-68
2023/04/01 06:58:35;;;;;;;0.45;0.10;;;10.20;99.90;;;;;;5028594;28;20040;-67
2023/04/01 07:01:07;;;;;;;1.35;0.22;;;10.20;99.90;;;;;;5023340;28;20056;-67
2023/04/01 07:03:43;;;;;;;0.30;0.28;;;10.20;99.90;;;;;;5019480;28;20033;-68
2023/04/01 07:06:31;;;;;;;0.95;0.30;;;10.20;99.90;;;;;;5019972;28;20036;-68
2023/04/01 07:09:05;;;;;;;6.45;0.15;;;10.20;99.90;;;;;;5018966;28;20025;-67
2023/04/01 07:11:37;;;;;;;0.40;0.10;;;10.20;99.90;;;;;;5034666;28;20389;-69
2023/04/01 07:14:25;;;;;;;21.27;0.57;;;10.30;99.90;;;;;;5019649;28;20040;-67
2023/04/01 07:17:01;;;;;;;0.52;0.40;;;10.30;99.90;;;;;;5025346;28;20040;-68
2023/04/01 07:20:11;;;;;;;1.77;0.40;;;10.30;99.90;;;;;;4995626;28;20053;-68
2023/04/01 07:22:44;;;;;;;1.52;0.25;;;10.20;99.90;;;;;;4995820;28;20033;-68
2023/04/01 07:25:55;;;;;;;9.25;0.57;;;10.20;99.90;;;;;;5027372;28;20116;-68
2023/04/01 07:28:22;;;;;;;1.50;0.17;;;10.20;99.90;;;;;;5012043;28;20028;-67
2023/04/01 07:30:47;;;;;;;1.50;0.70;;;10.30;99.90;;;;;;5032370;28;20029;-68
2023/04/01 07:33:44;;;;;;;3.85;0.55;;;10.30;99.90;;;;;;5026724;28;20104;-67
2023/04/01 07:36:48;;;;;;;0.55;0.20;;;10.30;99.90;;;;;;5027733;28;20029;-69
2023/04/01 07:39:49;;;;;;;0.00;0.00;;;10.30;99.90;;;;;;5029491;28;20057;-68
2023/04/01 07:42:50;;;;;;;0.60;0.25;;;10.40;99.90;;;;;;5028491;28;20041;-67
2023/04/01 07:45:34;;;;;;;2.17;0.20;;;10.30;99.90;;;;;;5027901;28;20037;-67
2023/04/01 07:48:11;;;;;;;0.45;0.10;;;10.30;99.90;;;;;;5011841;28;20032;-67
2023/04/01 07:51:23;;;;;;;2.42;0.40;;;10.30;99.90;;;;;;5031007;28;20022;-67
2023/04/01 07:53:51;;;;;;;;;;;10.30;99.90;;;;;;5025797;28;20605;-67
2023/04/01 07:56:37;;;;;;;0.13;0.13;;;10.30;99.90;;;;;;5032667;28;19922;-67
2023/04/01 07:59:25;;;;;;;0.30;0.10;;;10.30;99.90;;;;;;5025157;28;20512;-67
2023/04/01 08:02:36;;;;;;;0.15;0.05;;;10.30;99.90;;;;;;5021570;28;20037;-67
2023/04/01 08:05:16;;;;;;;0.77;0.45;;;10.30;99.90;;;;;;5022438;28;20026;-67
2023/04/01 08:08:09;;;;;;;0.00;0.00;;;10.40;99.90;;;;;;5039824;28;20033;-67
2023/04/01 08:10:57;;;;;;;3.03;0.40;;;10.40;99.90;;;;;;5029564;28;20303;-67
2023/04/01 08:13:42;;;;;;;3.63;0.32;;;10.50;99.90;;;;;;5040187;28;20025;-67
2023/04/01 08:16:28;;;;;;;0.15;0.15;;;10.50;99.90;;;;;;5018196;28;20694;-67
2023/04/01 08:18:54;;;;;;;0.20;0.20;;;10.40;99.90;;;;;;5018580;28;20066;-66
2023/04/01 08:21:42;;;;;;;3.20;0.32;;;10.50;99.90;;;;;;5028624;28;20104;-67
2023/04/01 08:24:36;;;;;;;0.40;0.10;;;10.30;99.90;;;;;;5031187;28;20236;-67
2023/04/01 08:27:12;;;;;;;0.73;0.17;;;10.30;99.90;;;;;;5024309;28;20021;-68
2023/04/01 08:29:40;;;;;;;3.22;0.43;;;10.30;99.90;;;;;;5036841;28;20045;-67
2023/04/01 08:32:15;;;;;;;0.70;0.60;;;10.30;99.90;;;;;;5029590;28;20021;-67
2023/04/01 08:34:47;;;;;;;0.38;0.22;;;10.30;99.90;;;;;;5030142;28;20037;-68
2023/04/01 08:37:23;;;;;;;0.00;0.00;;;10.20;99.90;;;;;;5031514;28;20078;-69
2023/04/01 08:39:57;;;;;;;0.03;0.03;;;10.20;99.90;;;;;;5026215;28;20033;-70
2023/04/01 08:42:42;;;;;;;0.38;0.20;;;10.20;99.90;;;;;;5038737;28;20032;-71
2023/04/01 08:45:25;;;;;;;0.00;0.00;;;10.20;99.90;;;;;;5027596;28;20038;-71
2023/04/01 08:47:50;;;;;;;0.75;0.30;;;10.20;99.90;;;;;;5027368;23;20521;-69
2023/04/01 08:51:02;;;;;;;0.10;0.00;;;10.10;99.90;;;;;;5011416;28;20030;-69
2023/04/01 08:54:41;;;;;;;0.57;0.10;;;10.10;99.90;;;;;;5000272;28;20032;-68
2023/04/01 08:57:42;;;;;;;1.92;0.32;;;10.20;99.90;;;;;;4916543;28;20416;-67
2023/04/01 09:00:31;;;;;;;0.00;0.00;;;10.30;99.90;;;;;;5003994;28;20022;-66
2023/04/01 09:03:33;;;;;;;3.45;0.82;;;10.30;99.90;;;;;;5004228;28;20422;-66
2023/04/01 09:06:31;;;;;;;0.40;0.25;;;10.30;99.90;;;;;;5003103;28;20034;-65
2023/04/01 09:09:34;;;;;;;2.03;0.17;;;10.40;99.90;;;;;;4981401;28;20030;-65
2023/04/01 09:12:55;;;;;;;0.65;0.65;;;10.40;99.90;;;;;;5007199;28;20116;-67
2023/04/01 09:16:05;;;;;;;0.63;0.25;;;10.40;99.90;;;;;;5000025;28;20056;-67
2023/04/01 09:19:10;;;;;;;2.13;0.20;;;10.30;99.90;;;;;;4982463;28;20030;-67
2023/04/01 09:22:11;;;;;;;0.43;0.30;;;10.30;99.90;;;;;;4990866;28;20033;-68
2023/04/01 09:25:06;;;;;;;;;;;10.40;99.90;;;;;;5007415;28;20087;-67
2023/04/01 09:28:18;;;;;;;0.13;0.10;;;10.30;99.90;;;;;;4993085;28;19913;-68
2023/04/01 09:31:01;;;;;;;0.60;0.20;;;10.30;99.90;;;;;;4993155;28;20038;-68
2023/04/01 09:33:58;;;;;;;0.10;0.10;;;10.20;99.90;;;;;;5005650;28;20041;-69
2023/04/01 09:37:02;;;;;;;0.32;0.10;;;10.20;99.90;;;;;;5007700;28;20117;-67
2023/04/01 09:39:53;;;;;;;3.42;0.50;;;10.20;99.90;;;;;;4984359;28;20045;-69
2023/04/01 09:43:02;;;;;;;1.13;0.50;;;10.20;99.90;;;;;;4975964;28;20042;-68
2023/04/01 09:46:02;;;;;;;0.10;0.10;;;10.30;99.90;;;;;;5007942;28;20041;-68
2023/04/01 09:48:59;;;;;;;1.30;0.25;;;10.30;99.90;;;;;;5008219;28;20086;-68
2023/04/01 09:52:04;;;;;;;3.70;0.40;;;10.40;99.90;;;;;;4992986;28;20105;-68
2023/04/01 09:54:58;;;;;;;0.00;0.00;;;10.40;99.90;;;;;;5000234;28;20034;-69
2023/04/01 09:58:09;;;;;;;0.55;0.10;;;10.40;99.90;;;;;;4983218;28;20566;-69
2023/04/01 10:01:02;;;;;;;0.13;0.03;;;10.40;99.90;;;;;;4999339;28;20105;-71
2023/04/01 10:04:23;;;;;;;1.75;0.65;;;10.50;99.90;;;;;;4998729;28;20029;-69
2023/04/01 10:07:10;;;;;;;0.83;0.57;;;10.60;99.90;;;;;;4994013;28;20030;-69
2023/04/01 10:10:13;;;;;;;5.65;1.08;;;10.60;99.90;;;;;;5002909;28;20029;-69
2023/04/01 10:13:20;;;;;;;0.10;0.10;;;10.60;99.90;;;;;;4999772;28;20143;-70
2023/04/01 10:16:10;;;;;;;0.40;0.30;;;10.70;99.90;;;;;;5008642;28;20037;-69
2023/04/01 10:19:16;;;;;;;0.35;0.28;;;10.70;99.90;;;;;;5000749;28;20038;-69
2023/04/01 10:22:11;;;;;;;0.70;0.38;;;10.80;99.90;;;;;;4987859;28;20034;-72
2023/04/01 10:25:05;;;;;;;0.00;0.00;;;10.80;99.90;;;;;;4989769;28;20030;-69
2023/04/01 10:27:52;;;;;;;0.00;0.00;;;10.90;99.90;;;;;;4997448;28;20034;-68
2023/04/01 10:31:01;;;;;;;0.60;0.13;;;10.80;99.90;;;;;;5005559;28;20034;-70
2023/04/01 10:34:12;;;;;;;0.10;0.00;;;10.90;99.90;;;;;;5002104;28;20034;-71
2023/04/01 10:36:55;;;;;;;0.13;0.13;;;11.00;99.90;;;;;;4984239;28;20498;-69
2023/04/01 10:40:04;;;;;;;4.45;0.82;;;10.80;99.90;;;;;;4989359;28;20022;-69
2023/04/01 10:43:04;;;;;;;1.23;0.40;;;10.90;99.90;;;;;;4965186;28;20112;-70
2023/04/01 10:45:57;;;;;;;0.10;0.10;;;10.80;99.90;;;;;;4990290;28;20034;-68
2023/04/01 10:49:22;;;;;;;0.03;0.03;;;10.90;99.90;;;;;;4995804;28;20042;-71
2023/04/01 10:52:43;;;;;;;0.22;0.22;;;10.90;99.90;;;;;;5007935;28;20033;-69
2023/04/01 10:55:42;;;;;;;0.55;0.30;;;10.90;99.90;;;;;;5001453;28;20042;-69
2023/04/01 10:58:41;;;;;;;2.35;0.45;;;11.00;99.90;;;;;;4994914;28;20113;-71
2023/04/01 11:01:46;;;;;;;0.30;0.20;;;11.00;99.90;;;;;;4998251;28;20484;-71
2023/04/01 11:05:18;;;;;;;0.10;0.10;;;11.00;99.90;;;;;;4996081;28;20113;-70
2023/04/01 11:08:43;;;;;;;0.20;0.10;;;11.00;99.90;;;;;;4993263;28;20054;-72
2023/04/01 11:11:32;;;;;;;0.13;0.13;;;11.00;99.90;;;;;;4996475;28;20046;-70
2023/04/01 11:14:35;;;;;;;0.30;0.10;;;11.10;99.90;;;;;;4989753;28;20045;-69
2023/04/01 11:17:45;;;;;;;0.80;0.17;;;11.10;99.90;;;;;;4999844;28;20036;-71
2023/04/01 11:21:09;;;;;;;0.15;0.10;;;11.10;99.90;;;;;;5000682;28;20022;-71
2023/04/01 11:24:21;;;;;;;0.20;0.08;;;11.20;99.90;;;;;;5009487;28;20026;-71
2023/04/01 11:27:06;;;;;;;0.35;0.15;;;11.30;99.90;;;;;;4998829;28;20512;-71
2023/04/01 11:29:52;;;;;;;0.75;0.25;;;11.30;99.90;;;;;;5013984;28;20034;-71
2023/04/01 11:32:30;;;;;;;3.47;0.20;;;11.40;99.90;;;;;;4997288;28;20033;-71
2023/04/01 11:35:43;;;;;;;0.25;0.15;;;11.40;99.90;;;;;;5015920;28;20034;-72
2023/04/01 11:38:30;;;;;;;0.10;0.10;;;11.40;99.90;;;;;;4994067;28;20073;-72
2023/04/01 11:41:23;;;;;;;0.60;0.22;;;11.40;99.90;;;;;;5005961;28;20450;-72
2023/04/01 11:44:14;;;;;;;0.00;0.00;;;11.40;99.90;;;;;;5009309;28;20030;-71
2023/04/01 11:47:20;;;;;;;0.35;0.13;;;11.40;99.90;;;;;;5005369;28;20481;-70
2023/04/01 11:50:29;;;;;;;0.75;0.17;;;11.50;99.90;;;;;;5006640;28;20038;-70
2023/04/01 11:53:27;;;;;;;0.20;0.20;;;11.50;99.90;;;;;;4993586;28;20026;-70
2023/04/01 11:56:09;;;;;;;0.32;0.30;;;11.60;99.90;;;;;;5001782;28;20141;-70
2023/04/01 11:58:57;;;;;;;0.22;0.20;;;11.70;99.90;;;;;;4994967;28;20023;-71
2023/04/01 12:01:53;;;;;;;0.65;0.32;;;11.70;99.90;;;;;;4991171;28;20072;-70
2023/04/01 12:04:56;;;;;;;0.28;0.20;;;11.80;99.90;;;;;;4979115;28;20109;-71
2023/04/01 12:07:38;;;;;;;0.05;0.05;;;11.90;99.90;;;;;;4975224;28;20113;-71
2023/04/01 12:10:28;;;;;;;0.73;0.28;;;11.90;99.90;;;;;;5016267;28;20026;-71
2023/04/01 12:13:19;;;;;;;0.00;0.00;;;11.90;99.90;;;;;;4975822;28;20030;-71
2023/04/01 12:16:23;;;;;;;0.82;0.40;;;12.10;99.90;;;;;;4999984;28;20626;-70
2023/04/01 12:19:04;;;;;;;5.47;0.52;;;12.00;99.90;;;;;;4995001;28;20037;-70
2023/04/01 12:21:59;;;;;;;2.90;0.47;;;12.00;99.90;;;;;;5004399;28;20101;-71
2023/04/01 12:24:51;;;;;;;0.10;0.10;;;12.10;99.90;;;;;;4992653;28;20049;-71
2023/04/01 12:27:29;;;;;;;0.13;0.05;;;12.10;99.90;;;;;;4996675;28;20022;-70
2023/04/01 12:30:11;;;;;;;0.47;0.17;;;12.10;99.90;;;;;;4988633;28;20036;-71
2023/04/01 12:33:10;;;;;;;0.10;0.00;;;12.10;99.90;;;;;;4994453;28;20748;-70
2023/04/01 12:36:13;;;;;;;0.38;0.17;;;12.20;99.90;;;;;;5002106;28;20490;-71
2023/04/01 12:38:52;;;;;;;0.00;0.00;;;12.30;99.90;;;;;;5008340;28;20467;-72
2023/04/01 12:41:43;;;;;;;0.10;0.10;;;12.30;99.90;;;;;;4994241;28;20030;-71
2023/04/01 12:45:00;;;;;;;0.65;0.20;;;12.30;99.90;;;;;;5008464;28;20049;-71
2023/04/01 12:47:51;;;;;;;0.10;0.10;;;12.30;99.90;;;;;;4987966;28;20041;-71
2023/04/01 12:50:31;;;;;;;0.47;0.10;;;12.30;99.90;;;;;;5000775;28;20065;-71
2023/04/01 12:53:35;;;;;;;0.70;0.20;;;12.30;99.90;;;;;;5011150;28;20059;-71
2023/04/01 12:56:36;;;;;;;0.10;0.00;;;12.40;99.90;;;;;;4971235;28;20042;-71
2023/04/01 12:59:20;;;;;;;0.30;0.28;;;12.40;99.90;;;;;;4982002;28;20413;-72
2023/04/01 13:02:27;;;;;;;0.45;0.20;;;12.40;99.90;;;;;;4992657;28;20042;-72
2023/04/01 13:05:24;;;;;;;0.25;0.10;;;12.40;99.90;;;;;;4999847;28;20034;-72
2023/04/01 13:08:27;;;;;;;8.80;0.40;;;12.50;99.90;;;;;;4975665;28;20470;-72
2023/04/01 13:11:21;;;;;;;0.17;0.10;;;12.50;99.90;;;;;;5012540;28;20034;-72
2023/04/01 13:14:29;;;;;;;2.33;0.20;;;12.40;99.90;;;;;;4993758;28;20408;-68
2023/04/01 13:17:23;;;;;;;0.08;0.08;;;12.40;99.90;;;;;;4996917;28;20069;-68
2023/04/01 13:20:05;;;;;;;0.00;0.00;;;12.40;99.90;;;;;;5009701;28;20050;-69
2023/04/01 13:22:57;;;;;;;0.00;0.00;;;12.40;99.90;;;;;;4991672;28;20108;-75
2023/04/01 13:25:54;;;;;;;0.90;0.00;;;12.30;99.90;;;;;;4987116;28;20384;-72
2023/04/01 13:28:32;;;;;;;0.00;0.00;;;12.30;99.90;;;;;;4974545;28;20175;-67
2023/04/01 13:31:27;;;;;;;0.03;0.03;;;12.20;99.90;;;;;;4975029;28;20022;-67
2023/04/01 13:34:20;;;;;;;6.57;0.40;;;12.20;99.90;;;;;;4979204;28;20103;-67
2023/04/01 13:37:26;;;;;;;0.38;0.20;;;12.10;99.90;;;;;;5002724;28;20061;-67
2023/04/01 13:40:20;;;;;;;0.30;0.30;;;12.30;99.90;;;;;;5003477;28;20033;-67
2023/04/01 13:43:07;;;;;;;0.38;0.20;;;12.30;99.90;;;;;;5010644;28;20042;-66
2023/04/01 13:46:05;;;;;;;0.20;0.10;;;12.30;99.90;;;;;;4998321;28;20413;-66
2023/04/01 13:49:05;;;;;;;0.32;0.17;;;12.30;99.90;;;;;;4990751;28;20026;-64
2023/04/01 13:52:24;;;;;;;0.00;0.00;;;12.30;99.90;;;;;;4990158;28;20018;-65
2023/04/01 13:55:20;;;;;;;0.25;0.20;;;12.40;99.90;;;;;;4998186;28;20543;-68
2023/04/01 13:58:21;;;;;;;0.20;0.20;;;12.30;99.90;;;;;;4990448;28;20034;-66
2023/04/01 14:00:56;;;;;;;0.70;0.20;;;12.30;99.90;;;;;;4999191;28;20073;-66
2023/04/01 14:03:46;;;;;;;0.25;0.17;;;12.30;99.90;;;;;;4991127;28;20456;-66
2023/04/01 14:06:38;;;;;;;0.43;0.25;;;12.30;99.90;;;;;;5012493;28;20041;-66